Weather


ICAO METAR
KAPA KAPA 181453Z 09004KT 10SM FEW220 18/06 A3025 RMK AO2 SLP190 T01830056 50002
KASE KASE 181453Z 00000KT 10SM CLR 14/M04 A3040 RMK AO2 SLP191 T01391039 58004
KBJC KBJC 181445Z 00000KT 10SM SKC 18/04 A3023
KBKF KBKF 181458Z 20011KT 10SM CLR 20/03 A3023 RMK AO2A SLP175 T01990027 50001
KCFO KCFO 181447Z 23008KT 10SM SKC 22/02 A3023
KCOS KCOS 181454Z 31004KT 10SM CLR 16/08 A3031 RMK AO2 SLP207 T01610083 58002
KCPR KCPR 181453Z 22014KT 10SM CLR 21/M06 A3011 RMK AO2 SLP141 T02061056 50000
KCYS KCYS 181453Z 28011KT 10SM CLR 20/M07 A3025 RMK AO2 SLP173 T02001067 51004
KDEN KDEN 181453Z 24011KT 10SM CLR 19/04 A3021 RMK AO2 SLP169 T01890039 58001
KEGE KEGE 181456Z 00000KT 10SM CLR 08/M06 A3042 RMK AO2 SLP269 6//// T00831056 50003 PNO $
KFCS KFCS 181458Z AUTO 01007KT 10SM CLR 14/08 A3027 RMK AO2 SLP230 T01390077 58004 $
KFMN KFMN 181453Z 12005KT 10SM FEW120 16/M02 A3029 RMK AO2 SLP206 T01561017 51008
KFNL KFNL 181456Z 00000KT 10SM CLR 13/06 A3021 RMK AO2 SLP196 T01280061 50000
KGJT KGJT 181453Z 10010KT 10SM SCT120 19/M04 A3020 RMK AO2 SLP168 T01891039 50002
KGUR KGUR 181458Z AUTO 00000KT 10SM CLR 11/06 A3011 RMK AO2 SLP176 T01130060 58002
KPUB KPUB 181453Z 00000KT 10SM CLR 14/08 A3025 RMK AO2 SLP207 T01440078 58003
KRAP KRAP 181452Z 17006KT 10SM CLR 18/07 A2994 RMK AO2 SLP125 60000 T01780072 58003 $
KRCA KRCA 181456Z AUTO 26009KT 10SM CLR 21/04 A2993 RMK AO2 SLP120 T02080044 57003 $

Surface Data
Click here.

This is a composite map contain the following analyses: radar summary (color filled areas), surface data plot (composite station model), frontal locations (in various bold lines) and pressure contours (in thin blue lines).